| time (UTC) | temp C | wind direction | speed KPH | gust KPH | rain 1hr cm | rain 24hr cm | rain mn cm | humidity % | barometer mb |
| 20260507114519 | 24 | 224 | 3.2 | 20.9 | 0.00 | 0.18 | 0.00 | 58 | 1013.8 |
| 20260507113516 | 24 | 223 | 4.8 | 12.9 | 0.00 | 0.18 | 0.00 | 61 | 1014.0 |
| 20260507112522 | 23 | 244 | 0.0 | 9.7 | 0.00 | 0.18 | 0.00 | 60 | 1014.1 |
| 20260507111523 | 24 | 222 | 3.2 | 6.4 | 0.00 | 0.18 | 0.00 | 59 | 1014.2 |
| 20260507110518 | 23 | 211 | 4.8 | 12.9 | 0.00 | 0.18 | 0.00 | 63 | 1014.3 |
| 20260507105522 | 23 | 243 | 0.0 | 4.8 | 0.00 | 0.18 | 0.00 | 62 | 1014.4 |
| 20260507104519 | 23 | 242 | 0.0 | 4.8 | 0.00 | 0.18 | 0.00 | 65 | 1014.6 |
| 20260507103534 | 22 | 221 | 0.0 | 3.2 | 0.00 | 0.18 | 0.00 | 69 | 1014.7 |
| 20260507102531 | 21 | 235 | 0.0 | 4.8 | 0.00 | 0.18 | 0.00 | 68 | 1014.8 |
| 20260507101525 | 22 | 218 | 3.2 | 16.1 | 0.00 | 0.18 | 0.00 | 67 | 1014.8 |
| 20260507100522 | 21 | 226 | 3.2 | 11.3 | 0.00 | 0.18 | 0.00 | 72 | 1014.7 |
| 20260507095517 | 20 | 219 | 3.2 | 9.7 | 0.00 | 0.18 | 0.00 | 72 | 1014.7 |
| 20260507094534 | 20 | 224 | 3.2 | 4.8 | 0.00 | 0.18 | 0.00 | 74 | 1014.8 |
| 20260507093529 | 20 | 333 | 0.0 | 1.6 | 0.00 | 0.20 | 0.00 | 74 | 1014.8 |
| 20260507092526 | 20 | 217 | 1.6 | 4.8 | 0.00 | 0.20 | 0.00 | 75 | 1014.8 |
| 20260507091521 | 20 | 259 | 1.6 | 4.8 | 0.00 | 0.23 | 0.00 | 75 | 1014.8 |
| 20260507090518 | 19 | 219 | 1.6 | 4.8 | 0.00 | 0.23 | 0.00 | 80 | 1014.9 |
| 20260507085533 | 19 | 16 | 1.6 | 3.2 | 0.00 | 0.23 | 0.00 | 80 | 1014.8 |
| 20260507084530 | 18 | 347 | 1.6 | 4.8 | 0.00 | 0.23 | 0.00 | 84 | 1014.7 |
| 20260507083525 | 17 | 188 | 0.0 | 1.6 | 0.00 | 0.23 | 0.00 | 85 | 1014.6 |
| 20260507082522 | 18 | 203 | 1.6 | 4.8 | 0.00 | 0.23 | 0.00 | 86 | 1014.7 |
| 20260507081537 | 18 | 199 | 0.0 | 3.2 | 0.00 | 0.23 | 0.00 | 89 | 1014.7 |
| 20260507080532 | 17 | 346 | 1.6 | 4.8 | 0.00 | 0.23 | 0.00 | 91 | 1014.7 |
| 20260507075529 | 16 | 272 | 0.0 | 1.6 | 0.00 | 0.23 | 0.00 | 92 | 1014.6 |
| 20260507074524 | 16 | 25 | 0.0 | 1.6 | 0.00 | 0.23 | 0.00 | 92 | 1014.6 |
| 20260507073520 | 16 | 358 | 0.0 | 1.6 | 0.00 | 0.23 | 0.00 | 92 | 1014.5 |
| 20260507072535 | 16 | 3 | 1.6 | 4.8 | 0.00 | 0.23 | 0.00 | 93 | 1014.4 |
| 20260507071532 | 16 | 0.0 | 0.0 | 0.00 | 0.23 | 0.00 | 94 | 1014.5 | |
| 20260507070527 | 15 | 9 | 1.6 | 4.8 | 0.00 | 0.23 | 0.00 | 94 | 1014.3 |
| 20260507065524 | 15 | 39 | 1.6 | 3.2 | 0.00 | 0.23 | 0.00 | 95 | 1014.3 |
| 20260507064519 | 15 | 0.0 | 0.0 | 0.00 | 0.23 | 0.00 | 95 | 1014.3 | |
| 20260507063536 | 15 | 5 | 1.6 | 3.2 | 0.00 | 0.23 | 0.00 | 96 | 1014.2 |
| 20260507062531 | 14 | 8 | 0.0 | 1.6 | 0.00 | 0.23 | 0.00 | 96 | 1014.3 |
| 20260507061529 | 14 | 23 | 0.0 | 3.2 | 0.00 | 0.23 | 0.00 | 96 | 1014.1 |
| 20260507060523 | 13 | 14 | 1.6 | 4.8 | 0.00 | 0.23 | 0.00 | 96 | 1014.1 |
| 20260507055518 | 13 | 21 | 1.6 | 4.8 | 0.00 | 0.23 | 0.00 | 96 | 1014.0 |
| 20260507054535 | 13 | 45 | 0.0 | 1.6 | 0.00 | 0.23 | 0.00 | 96 | 1013.9 |
| 20260507053530 | 13 | 47 | 0.0 | 1.6 | 0.00 | 0.23 | 0.00 | 96 | 1013.8 |
| 20260507052525 | 13 | 0.0 | 0.0 | 0.00 | 0.23 | 0.00 | 96 | 1013.6 | |
| 20260507051522 | 13 | 41 | 0.0 | 1.6 | 0.00 | 0.23 | 0.00 | 96 | 1013.7 |
| 20260507050537 | 13 | 0.0 | 0.0 | 0.00 | 0.23 | 0.00 | 96 | 1013.4 | |
| 20260507045534 | 13 | 0.0 | 0.0 | 0.00 | 0.23 | 0.00 | 96 | 1013.5 | |
| 20260507044529 | 13 | 0.0 | 0.0 | 0.00 | 0.23 | 0.00 | 96 | 1013.3 | |
| 20260507043525 | 13 | 0.0 | 0.0 | 0.00 | 0.23 | 0.00 | 96 | 1013.3 | |
| 20260507042520 | 13 | 0.0 | 0.0 | 0.00 | 0.23 | 0.00 | 96 | 1013.1 | |
| 20260507041537 | 13 | 0.0 | 0.0 | 0.00 | 0.23 | 0.00 | 96 | 1012.9 | |
| 20260507040532 | 13 | 0.0 | 0.0 | 0.00 | 0.23 | 0.00 | 96 | 1013.0 | |
| 20260507035529 | 13 | 0.0 | 0.0 | 0.00 | 0.23 | 0.00 | 96 | 1012.9 | |
| 20260507034524 | 13 | 0.0 | 0.0 | 0.00 | 0.25 | 0.00 | 96 | 1012.9 | |
| 20260507033519 | 13 | 0.0 | 0.0 | 0.00 | 0.25 | 0.00 | 96 | 1012.7 | |
| 20260507032534 | 13 | 0.0 | 0.0 | 0.00 | 0.25 | 0.00 | 96 | 1012.9 | |
| 20260507031531 | 13 | 0.0 | 0.0 | 0.00 | 0.25 | 0.00 | 96 | 1012.7 | |
| 20260507030526 | 13 | 0.0 | 0.0 | 0.00 | 0.23 | 0.00 | 96 | 1012.7 | |
| 20260507025523 | 13 | 0.0 | 0.0 | 0.00 | 0.23 | 0.00 | 95 | 1012.7 | |
| 20260507024520 | 13 | 0.0 | 0.0 | 0.00 | 0.23 | 0.00 | 95 | 1012.7 | |
| 20260507023535 | 13 | 17 | 0.0 | 3.2 | 0.00 | 0.23 | 0.00 | 96 | 1012.8 |
| 20260507022532 | 13 | 59 | 0.0 | 1.6 | 0.00 | 0.23 | 0.00 | 96 | 1012.7 |
| 20260507021527 | 13 | 42 | 0.0 | 3.2 | 0.00 | 0.23 | 0.00 | 96 | 1012.7 |
| 20260507020522 | 13 | 26 | 1.6 | 3.2 | 0.00 | 0.23 | 0.00 | 96 | 1012.7 |
| 20260507015535 | 12 | 25 | 0.0 | 1.6 | 0.00 | 0.23 | 0.00 | 95 | 1012.6 |
| 20260507014530 | 12 | 0.0 | 0.0 | 0.00 | 0.23 | 0.00 | 95 | 1012.5 | |
| 20260507013526 | 12 | 0.0 | 0.0 | 0.00 | 0.23 | 0.00 | 95 | 1012.5 | |
| 20260507012521 | 12 | 0.0 | 0.0 | 0.00 | 0.23 | 0.00 | 94 | 1012.4 | |
| 20260507011518 | 12 | 0.0 | 0.0 | 0.00 | 0.23 | 0.00 | 94 | 1012.5 | |
| 20260507010533 | 13 | 0.0 | 0.0 | 0.00 | 0.23 | 0.00 | 95 | 1012.6 | |
| 20260507005528 | 12 | 0.0 | 0.0 | 0.00 | 0.23 | 0.00 | 95 | 1012.7 | |
| 20260507004525 | 12 | 0.0 | 0.0 | 0.00 | 0.23 | 0.00 | 95 | 1012.5 | |
| 20260507003520 | 12 | 0.0 | 0.0 | 0.00 | 0.23 | 0.00 | 95 | 1012.6 | |
| 20260507002537 | 12 | 0.0 | 0.0 | 0.00 | 0.23 | 0.00 | 94 | 1012.5 | |
| 20260507001532 | 12 | 0.0 | 0.0 | 0.00 | 0.23 | 0.00 | 94 | 1012.4 | |
| 20260507000529 | 13 | 0.0 | 0.0 | 0.00 | 0.23 | 0.00 | 94 | 1012.5 | |
| 20260506235524 | 13 | 0.0 | 0.0 | 0.00 | 0.23 | 0.00 | 94 | 1012.6 | |
| 20260506234521 | 13 | 0.0 | 0.0 | 0.00 | 0.23 | 0.00 | 94 | 1012.6 | |
| 20260506233536 | 13 | 0.0 | 0.0 | 0.00 | 0.23 | 0.00 | 94 | 1012.5 | |
| 20260506232533 | 12 | 0.0 | 0.0 | 0.00 | 0.23 | 0.00 | 94 | 1012.5 | |
| 20260506231527 | 12 | 0.0 | 0.0 | 0.00 | 0.23 | 0.00 | 94 | 1012.4 | |
| 20260506230522 | 12 | 0.0 | 0.0 | 0.00 | 0.23 | 0.00 | 94 | 1012.6 | |
| 20260506225518 | 13 | 0.0 | 0.0 | 0.00 | 0.23 | 0.00 | 94 | 1012.3 | |
| 20260506224517 | 13 | 0.0 | 0.0 | 0.00 | 0.23 | 0.00 | 94 | 1012.5 | |
| 20260506223524 | 13 | 0.0 | 0.0 | 0.00 | 0.23 | 0.00 | 93 | 1012.6 | |
| 20260506222518 | 13 | 0.0 | 0.0 | 0.00 | 0.23 | 0.00 | 93 | 1012.4 | |
| 20260506221519 | 13 | 0.0 | 0.0 | 0.00 | 0.23 | 0.00 | 93 | 1012.5 | |
| 20260506220518 | 13 | 0.0 | 0.0 | 0.00 | 0.23 | 0.23 | 93 | 1012.4 | |
| 20260506215522 | 13 | 0.0 | 0.0 | 0.00 | 0.23 | 0.23 | 93 | 1012.4 | |
| 20260506214519 | 13 | 0.0 | 0.0 | 0.00 | 0.23 | 0.23 | 93 | 1012.3 | |
| 20260506213524 | 13 | 0.0 | 0.0 | 0.00 | 0.23 | 0.23 | 92 | 1012.3 | |
| 20260506212520 | 14 | 0.0 | 0.0 | 0.00 | 0.23 | 0.23 | 92 | 1012.3 | |
| 20260506211521 | 14 | 0.0 | 0.0 | 0.00 | 0.23 | 0.23 | 93 | 1012.3 | |
| 20260506210528 | 14 | 0.0 | 0.0 | 0.00 | 0.23 | 0.23 | 92 | 1012.2 | |
| 20260506205516 | 14 | 0.0 | 0.0 | 0.00 | 0.23 | 0.23 | 92 | 1012.1 | |
| 20260506204523 | 14 | 0.0 | 0.0 | 0.00 | 0.23 | 0.23 | 92 | 1012.1 | |
| 20260506203520 | 14 | 0.0 | 0.0 | 0.00 | 0.23 | 0.23 | 91 | 1012.2 | |
| 20260506202518 | 14 | 0.0 | 0.0 | 0.00 | 0.23 | 0.23 | 91 | 1012.1 | |
| 20260506201526 | 15 | 0.0 | 0.0 | 0.00 | 0.23 | 0.23 | 91 | 1012.0 | |
| 20260506200524 | 15 | 0.0 | 0.0 | 0.00 | 0.23 | 0.23 | 90 | 1011.8 | |
| 20260506195520 | 15 | 0.0 | 0.0 | 0.00 | 0.23 | 0.23 | 90 | 1011.7 | |
| 20260506194517 | 15 | 0.0 | 0.0 | 0.00 | 0.23 | 0.23 | 90 | 1011.5 | |
| 20260506193518 | 16 | 16 | 0.0 | 3.2 | 0.00 | 0.23 | 0.23 | 90 | 1011.6 |
| 20260506192522 | 16 | 0.0 | 0.0 | 0.00 | 0.23 | 0.23 | 90 | 1011.6 | |
| 20260506191526 | 16 | 7 | 0.0 | 3.2 | 0.00 | 0.23 | 0.23 | 89 | 1011.3 |
| 20260506190518 | 16 | 27 | 0.0 | 3.2 | 0.00 | 0.23 | 0.23 | 89 | 1011.4 |
| 20260506185516 | 16 | 13 | 1.6 | 4.8 | 0.00 | 0.23 | 0.23 | 89 | 1011.3 |
| 20260506184517 | 16 | 19 | 0.0 | 1.6 | 0.00 | 0.23 | 0.23 | 89 | 1011.2 |
| 20260506183518 | 16 | 319 | 0.0 | 1.6 | 0.00 | 0.23 | 0.23 | 88 | 1010.9 |
| 20260506182524 | 16 | 21 | 3.2 | 6.4 | 0.00 | 0.23 | 0.23 | 88 | 1011.0 |
| 20260506181521 | 17 | 18 | 1.6 | 4.8 | 0.00 | 0.23 | 0.23 | 88 | 1010.7 |
| 20260506180520 | 17 | 18 | 3.2 | 4.8 | 0.00 | 0.23 | 0.23 | 88 | 1010.8 |
| 20260506175526 | 17 | 0.0 | 0.0 | 0.00 | 0.23 | 0.23 | 88 | 1010.7 | |
| 20260506174517 | 17 | 12 | 1.6 | 3.2 | 0.00 | 0.23 | 0.23 | 87 | 1010.6 |
| 20260506173522 | 17 | 321 | 0.0 | 1.6 | 0.00 | 0.23 | 0.23 | 87 | 1010.6 |
| 20260506172520 | 17 | 3 | 1.6 | 4.8 | 0.00 | 0.23 | 0.23 | 87 | 1010.7 |
| 20260506171517 | 17 | 306 | 0.0 | 1.6 | 0.00 | 0.23 | 0.23 | 86 | 1010.6 |
| 20260506170518 | 17 | 0.0 | 0.0 | 0.00 | 0.23 | 0.23 | 86 | 1010.6 | |
| 20260506165526 | 17 | 306 | 0.0 | 3.2 | 0.00 | 0.23 | 0.23 | 85 | 1010.6 |
| 20260506164519 | 18 | 286 | 0.0 | 1.6 | 0.00 | 0.23 | 0.23 | 84 | 1010.6 |
| 20260506163526 | 18 | 0.0 | 0.0 | 0.00 | 0.23 | 0.23 | 84 | 1010.5 | |
| 20260506162530 | 18 | 251 | 0.0 | 3.2 | 0.00 | 0.23 | 0.23 | 83 | 1010.7 |
| 20260506161521 | 18 | 298 | 0.0 | 1.6 | 0.00 | 0.23 | 0.23 | 81 | 1010.8 |
| 20260506160518 | 20 | 251 | 0.0 | 1.6 | 0.00 | 0.23 | 0.23 | 81 | 1010.7 |
| 20260506155518 | 20 | 0.0 | 0.0 | 0.00 | 0.23 | 0.23 | 82 | 1010.8 | |
| 20260506154519 | 20 | 252 | 0.0 | 3.2 | 0.00 | 0.23 | 0.23 | 83 | 1010.6 |
| 20260506153528 | 19 | 319 | 1.6 | 3.2 | 0.00 | 0.23 | 0.23 | 84 | 1010.7 |
| 20260506153024 | 18 | 287 | 1.6 | 3.2 | 0.00 | 0.23 | 0.23 | 84 | 1010.6 |
| 20260506152020 | 18 | 203 | 0.0 | 1.6 | 0.00 | 0.23 | 0.23 | 84 | 1010.7 |
| 20260506151021 | 18 | 283 | 0.0 | 1.6 | 0.00 | 0.23 | 0.23 | 85 | 1010.6 |
| 20260506142518 | 18 | 350 | 0.0 | 3.2 | 0.00 | 0.23 | 0.23 | 88 | 1010.8 |
| 20260506141519 | 18 | 4 | 0.0 | 4.8 | 0.03 | 0.23 | 0.23 | 89 | 1010.8 |
| 20260506140519 | 18 | 351 | 1.6 | 4.8 | 0.10 | 0.23 | 0.23 | 89 | 1011.0 |
| 20260506135020 | 17 | 335 | 0.0 | 1.6 | 0.18 | 0.23 | 0.23 | 89 | 1011.0 |
| 20260506134017 | 17 | 333 | 0.0 | 3.2 | 0.18 | 0.23 | 0.23 | 89 | 1011.1 |
| 20260506133518 | 17 | 326 | 0.0 | 4.8 | 0.18 | 0.23 | 0.23 | 89 | 1011.4 |
| 20260506132517 | 17 | 297 | 0.0 | 1.6 | 0.18 | 0.23 | 0.23 | 88 | 1011.4 |
| 20260506132019 | 16 | 297 | 0.0 | 3.2 | 0.15 | 0.23 | 0.23 | 87 | 1011.5 |
| 20260506131018 | 17 | 238 | 1.6 | 4.8 | 0.10 | 0.18 | 0.18 | 86 | 1011.5 |
| 20260506130518 | 17 | 0.0 | 0.0 | 0.08 | 0.15 | 0.15 | 86 | 1011.5 | |
| 20260506130020 | 17 | 307 | 0.0 | 1.6 | 0.03 | 0.10 | 0.10 | 85 | 1011.6 |
| 20260506125523 | 17 | 307 | 0.0 | 1.6 | 0.00 | 0.08 | 0.08 | 85 | 1011.7 |
| 20260506125022 | 18 | 293 | 0.0 | 6.4 | 0.00 | 0.08 | 0.08 | 84 | 1011.5 |
| 20260506124521 | 18 | 346 | 1.6 | 3.2 | 0.00 | 0.08 | 0.08 | 84 | 1011.5 |
| 20260506123022 | 18 | 358 | 1.6 | 4.8 | 0.00 | 0.08 | 0.08 | 83 | 1011.3 |
| 20260506122030 | 18 | 314 | 1.6 | 3.2 | 0.00 | 0.08 | 0.08 | 82 | 1011.5 |
| 20260506121018 | 19 | 297 | 0.0 | 3.2 | 0.00 | 0.08 | 0.08 | 80 | 1011.6 |
| 20260506120019 | 20 | 7 | 1.6 | 3.2 | 0.00 | 0.08 | 0.08 | 78 | 1011.8 |
| 20260506115017 | 20 | 339 | 1.6 | 4.8 | 0.00 | 0.08 | 0.08 | 79 | 1011.9 |